createdAt,value
2017-06-16T00:01:54.126Z,75.90
2017-06-16T00:04:21.388Z,75.90
2017-06-16T00:06:48.662Z,75.80
2017-06-16T00:09:15.932Z,75.80
2017-06-16T00:11:43.193Z,75.70
2017-06-16T00:14:10.478Z,75.70
2017-06-16T00:16:37.780Z,75.60
2017-06-16T00:19:05.066Z,75.50
2017-06-16T00:21:32.333Z,75.50
2017-06-16T00:23:59.609Z,75.50
2017-06-16T00:26:26.891Z,75.40
2017-06-16T00:28:54.179Z,75.50
2017-06-16T00:31:21.439Z,75.50
2017-06-16T00:33:48.721Z,75.40
2017-06-16T00:36:16.010Z,75.40
2017-06-16T00:38:43.294Z,75.40
2017-06-16T00:41:12.687Z,75.30
2017-06-16T00:43:42.137Z,75.20
2017-06-16T00:46:11.819Z,75.30
2017-06-16T00:48:41.897Z,75.30
2017-06-16T00:51:12.810Z,75.30
2017-06-16T00:53:42.581Z,75.50
2017-06-16T00:56:12.103Z,75.40
2017-06-16T00:58:41.598Z,75.30
2017-06-16T01:01:09.037Z,75.30
2017-06-16T01:03:36.306Z,75.30
2017-06-16T01:06:03.604Z,75.40
2017-06-16T01:08:30.878Z,75.30
2017-06-16T01:10:58.155Z,75.30
2017-06-16T01:13:25.434Z,75.30
2017-06-16T01:15:52.704Z,75.30
2017-06-16T01:18:19.986Z,75.30
2017-06-16T01:20:47.265Z,75.30
2017-06-16T01:23:14.537Z,75.30
2017-06-16T01:25:41.804Z,75.30
2017-06-16T01:28:09.088Z,75.30
2017-06-16T01:30:36.348Z,75.30
2017-06-16T01:33:03.643Z,75.30
2017-06-16T01:35:30.930Z,75.30
2017-06-16T01:37:58.214Z,75.20
2017-06-16T01:40:25.503Z,75.20
2017-06-16T01:42:52.765Z,75.20
2017-06-16T01:45:20.036Z,75.20
2017-06-16T01:47:47.309Z,75.20
2017-06-16T01:50:14.581Z,75.20
2017-06-16T01:52:41.867Z,75.20
2017-06-16T01:55:09.156Z,75.10
2017-06-16T01:57:36.440Z,75.10
2017-06-16T02:00:03.708Z,75.10
2017-06-16T02:02:30.979Z,75.00
2017-06-16T02:04:58.257Z,75.00
2017-06-16T02:07:25.547Z,75.00
2017-06-16T02:09:52.830Z,75.00
2017-06-16T02:12:20.106Z,75.00
2017-06-16T02:14:47.386Z,75.00
2017-06-16T02:17:14.757Z,75.00
2017-06-16T02:19:42.032Z,74.90
2017-06-16T02:22:09.323Z,75.00
2017-06-16T02:24:36.737Z,74.90
2017-06-16T02:27:04.169Z,74.90
2017-06-16T02:29:31.467Z,74.90
2017-06-16T02:31:58.750Z,74.90
2017-06-16T02:34:26.022Z,74.90
2017-06-16T02:36:53.302Z,74.90
2017-06-16T02:39:20.574Z,74.90
2017-06-16T02:41:47.703Z,74.80
2017-06-16T02:44:15.020Z,74.90
2017-06-16T02:46:42.963Z,74.80
2017-06-16T02:49:10.288Z,74.80
2017-06-16T02:51:37.565Z,74.80
2017-06-16T02:54:04.855Z,74.80
2017-06-16T02:56:32.411Z,74.70
2017-06-16T02:58:59.702Z,74.80
2017-06-16T03:01:26.982Z,74.80
2017-06-16T03:03:54.497Z,74.70
2017-06-16T03:06:21.779Z,74.70
2017-06-16T03:08:49.044Z,74.70
2017-06-16T03:11:16.327Z,74.70
2017-06-16T03:13:43.609Z,74.70
2017-06-16T03:16:10.891Z,74.70
2017-06-16T03:18:38.147Z,74.70
2017-06-16T03:21:23.252Z,74.70
2017-06-16T03:23:50.430Z,74.70
2017-06-16T03:26:17.735Z,74.70
2017-06-16T03:28:45.680Z,74.70
2017-06-16T03:31:12.952Z,74.60
2017-06-16T03:33:40.212Z,74.70
2017-06-16T03:36:07.495Z,74.70
2017-06-16T03:38:34.787Z,74.70
2017-06-16T03:41:02.075Z,74.60
2017-06-16T03:43:29.361Z,74.60
2017-06-16T03:45:56.642Z,74.60
2017-06-16T03:48:24.063Z,74.60
2017-06-16T03:50:51.347Z,74.60
2017-06-16T03:53:18.630Z,74.60
2017-06-16T03:55:45.913Z,74.60
2017-06-16T03:58:13.197Z,74.60
2017-06-16T04:00:40.479Z,74.60
2017-06-16T04:03:07.747Z,74.60
2017-06-16T04:05:35.038Z,74.60
2017-06-16T04:08:02.304Z,74.60
2017-06-16T04:10:29.931Z,74.60
2017-06-16T04:12:57.215Z,74.60
2017-06-16T04:15:24.484Z,74.60
2017-06-16T04:17:51.757Z,74.60
2017-06-16T04:20:19.028Z,74.60
2017-06-16T04:22:46.315Z,74.60
2017-06-16T04:25:13.582Z,74.60
2017-06-16T04:27:40.861Z,74.60
2017-06-16T04:30:08.139Z,74.60
2017-06-16T04:32:35.528Z,74.60
2017-06-16T04:35:02.789Z,74.60
2017-06-16T04:37:30.075Z,74.60
2017-06-16T04:39:57.346Z,74.60
2017-06-16T04:42:24.643Z,74.60
2017-06-16T04:44:52.134Z,74.60
2017-06-16T04:47:19.411Z,74.60
2017-06-16T04:49:46.668Z,74.60
2017-06-16T04:52:13.945Z,74.60
2017-06-16T04:54:41.217Z,74.60
2017-06-16T04:57:08.502Z,74.60
2017-06-16T04:59:35.606Z,74.60
2017-06-16T05:02:02.910Z,74.60
2017-06-16T05:04:30.210Z,74.60
2017-06-16T05:06:57.499Z,74.60
2017-06-16T05:09:24.773Z,74.60
2017-06-16T05:11:52.038Z,74.60
2017-06-16T05:14:19.335Z,74.60
2017-06-16T05:16:46.618Z,74.60
2017-06-16T05:19:13.898Z,74.60
2017-06-16T05:21:41.197Z,74.60
2017-06-16T05:24:08.482Z,74.60
2017-06-16T05:26:35.767Z,74.60
2017-06-16T05:29:03.037Z,74.60
2017-06-16T05:31:30.319Z,74.60
2017-06-16T05:33:57.598Z,74.60
2017-06-16T05:36:24.860Z,74.60
2017-06-16T05:38:52.137Z,74.60
2017-06-16T05:41:19.432Z,74.60
2017-06-16T05:43:46.706Z,74.60
2017-06-16T05:46:13.986Z,74.60
2017-06-16T05:48:41.256Z,74.60
2017-06-16T05:51:08.530Z,74.60
2017-06-16T05:53:35.823Z,74.60
2017-06-16T05:56:03.092Z,74.60
2017-06-16T05:58:30.378Z,74.60
2017-06-16T06:00:57.653Z,74.60
2017-06-16T06:03:24.951Z,74.60
2017-06-16T06:05:52.239Z,74.60
2017-06-16T06:08:19.511Z,74.70
2017-06-16T06:10:46.798Z,74.70
2017-06-16T06:13:14.067Z,74.60
2017-06-16T06:15:41.333Z,74.60
2017-06-16T06:18:08.613Z,74.60
2017-06-16T06:20:35.889Z,74.70
2017-06-16T06:23:03.161Z,74.70
2017-06-16T06:25:30.425Z,74.80
2017-06-16T06:27:57.710Z,74.80
2017-06-16T06:30:24.972Z,74.70
2017-06-16T06:32:52.236Z,74.70
2017-06-16T06:35:19.518Z,74.80
2017-06-16T06:37:46.789Z,74.70
2017-06-16T06:40:14.056Z,74.70
2017-06-16T06:42:41.353Z,74.70
2017-06-16T06:45:08.635Z,74.70
2017-06-16T06:47:35.915Z,74.70
2017-06-16T06:50:03.725Z,74.70
2017-06-16T06:52:32.616Z,74.60
2017-06-16T06:55:01.048Z,74.60
2017-06-16T06:57:29.090Z,74.60
2017-06-16T06:59:56.406Z,74.60
2017-06-16T07:02:23.668Z,74.60
2017-06-16T07:04:50.941Z,74.70
2017-06-16T07:07:18.212Z,74.60
2017-06-16T07:09:45.497Z,74.60
2017-06-16T07:12:12.779Z,74.50
2017-06-16T07:14:40.319Z,74.50
2017-06-16T07:17:07.606Z,74.60
2017-06-16T07:19:34.889Z,74.50
2017-06-16T07:22:02.170Z,74.50
2017-06-16T07:24:29.464Z,74.50
2017-06-16T07:26:56.733Z,74.20
2017-06-16T07:29:24.023Z,74.00
2017-06-16T07:31:51.312Z,73.90
2017-06-16T07:34:18.576Z,73.80
2017-06-16T07:36:45.849Z,73.90
2017-06-16T07:39:13.146Z,74.00
2017-06-16T07:41:40.422Z,74.00
2017-06-16T07:44:07.706Z,74.10
2017-06-16T07:46:34.968Z,74.20
2017-06-16T07:49:02.228Z,74.20
2017-06-16T07:51:29.488Z,74.10
2017-06-16T07:53:56.774Z,74.20
2017-06-16T07:56:23.887Z,74.00
2017-06-16T07:58:51.161Z,74.10
2017-06-16T08:01:18.852Z,74.10
2017-06-16T08:03:46.149Z,74.10
2017-06-16T08:06:13.416Z,74.10
2017-06-16T08:08:40.681Z,73.90
2017-06-16T08:11:07.975Z,73.90
2017-06-16T08:13:35.933Z,73.80
2017-06-16T08:16:03.211Z,73.70
2017-06-16T08:18:30.484Z,73.80
2017-06-16T08:21:03.057Z,73.80
2017-06-16T08:23:30.320Z,73.80
2017-06-16T08:25:57.587Z,73.90
2017-06-16T08:28:24.856Z,73.80
2017-06-16T08:30:52.125Z,73.90
2017-06-16T08:33:19.407Z,73.90
2017-06-16T08:35:46.687Z,73.90
2017-06-16T08:38:13.966Z,73.90
2017-06-16T08:40:41.238Z,73.90
2017-06-16T08:43:08.522Z,73.90
2017-06-16T08:45:35.811Z,73.80
2017-06-16T08:48:03.091Z,73.80
2017-06-16T08:50:30.369Z,73.80
2017-06-16T08:52:57.646Z,73.80
2017-06-16T08:55:24.935Z,73.90
2017-06-16T08:57:52.218Z,73.90
2017-06-16T09:00:19.505Z,73.80
2017-06-16T09:02:46.782Z,73.80
2017-06-16T09:05:13.901Z,73.80
2017-06-16T09:07:41.193Z,73.80
2017-06-16T09:10:08.456Z,73.80
2017-06-16T09:12:35.725Z,73.80
2017-06-16T09:15:03.014Z,73.80
2017-06-16T09:17:30.276Z,73.90
2017-06-16T09:19:57.551Z,73.90
2017-06-16T09:22:24.833Z,73.90
2017-06-16T09:24:52.092Z,73.80
2017-06-16T09:27:19.386Z,73.90
2017-06-16T09:29:46.667Z,73.80
2017-06-16T09:32:14.003Z,73.80
2017-06-16T09:34:41.269Z,73.70
2017-06-16T09:37:08.561Z,73.70
2017-06-16T09:39:35.834Z,73.80
2017-06-16T09:42:03.108Z,73.70
2017-06-16T09:44:30.391Z,73.70
2017-06-16T09:46:57.662Z,72.90
2017-06-16T09:49:24.950Z,73.30
2017-06-16T09:51:52.229Z,73.50
2017-06-16T09:54:19.493Z,73.50
2017-06-16T09:56:47.152Z,73.10
2017-06-16T09:59:14.441Z,73.10
2017-06-16T10:01:41.730Z,73.20
2017-06-16T10:04:09.002Z,73.30
2017-06-16T10:06:36.281Z,73.40
2017-06-16T10:09:03.574Z,73.50
2017-06-16T10:11:30.851Z,73.60
2017-06-16T10:13:58.121Z,73.50
2017-06-16T10:16:25.389Z,73.60
2017-06-16T10:18:52.656Z,73.70
2017-06-16T10:21:19.928Z,73.70
2017-06-16T10:23:47.217Z,73.70
2017-06-16T10:26:14.485Z,73.70
2017-06-16T10:28:41.762Z,73.60
2017-06-16T10:31:09.041Z,73.70
2017-06-16T10:33:36.335Z,73.70
2017-06-16T10:36:03.613Z,73.70
2017-06-16T10:38:30.898Z,73.60
2017-06-16T10:40:58.176Z,73.60
2017-06-16T10:43:25.466Z,73.50
2017-06-16T10:45:52.733Z,73.60
2017-06-16T10:48:20.004Z,73.50
2017-06-16T10:50:47.272Z,73.50
2017-06-16T10:53:14.555Z,73.40
2017-06-16T10:55:41.824Z,73.40
2017-06-16T10:58:09.118Z,73.50
2017-06-16T11:00:36.401Z,73.50
2017-06-16T11:03:03.668Z,73.50
2017-06-16T11:05:30.967Z,73.50
2017-06-16T11:07:58.246Z,73.50
2017-06-16T11:10:25.516Z,73.50
2017-06-16T11:12:53.104Z,73.50
2017-06-16T11:15:20.377Z,73.50
2017-06-16T11:17:47.658Z,73.50
2017-06-16T11:20:14.946Z,73.50
2017-06-16T11:22:42.208Z,73.40
2017-06-16T11:25:09.487Z,73.30
2017-06-16T11:27:36.761Z,73.30
2017-06-16T11:30:04.033Z,73.30
2017-06-16T11:32:31.300Z,73.30
2017-06-16T11:34:58.568Z,73.10
2017-06-16T11:37:25.839Z,73.20
2017-06-16T11:39:53.126Z,73.10
2017-06-16T11:42:20.403Z,73.10
2017-06-16T11:44:47.698Z,72.90
2017-06-16T11:47:14.967Z,73.00
2017-06-16T11:49:42.095Z,73.10
2017-06-16T11:52:09.205Z,73.10
2017-06-16T11:54:36.313Z,72.90
2017-06-16T11:57:03.968Z,73.10
2017-06-16T11:59:31.228Z,73.10
2017-06-16T12:01:58.514Z,73.10
2017-06-16T12:04:25.793Z,73.20
2017-06-16T12:06:53.082Z,73.20
2017-06-16T12:09:20.349Z,73.20
2017-06-16T12:11:47.625Z,73.20
2017-06-16T12:14:14.901Z,73.20
2017-06-16T12:16:42.177Z,73.20
2017-06-16T12:19:09.444Z,73.20
2017-06-16T12:21:36.721Z,73.00
2017-06-16T12:24:03.992Z,73.10
2017-06-16T12:26:31.275Z,73.10
2017-06-16T12:28:58.541Z,73.10
2017-06-16T12:31:25.826Z,73.10
2017-06-16T12:33:53.089Z,73.10
2017-06-16T12:36:20.352Z,73.10
2017-06-16T12:38:47.627Z,73.10
2017-06-16T12:41:14.926Z,73.10
2017-06-16T12:43:42.211Z,73.20
2017-06-16T12:46:09.375Z,73.20
2017-06-16T12:48:36.848Z,73.10
2017-06-16T12:51:04.113Z,73.10
2017-06-16T12:53:31.397Z,73.00
2017-06-16T12:55:58.673Z,73.10
2017-06-16T12:58:25.951Z,73.00
2017-06-16T13:00:53.220Z,73.10
2017-06-16T13:03:20.497Z,73.10
2017-06-16T13:05:47.777Z,73.10
2017-06-16T13:08:15.036Z,73.10
